Time;durP1;ratioP1;P1;durP2;ratioP2;P2;SDS_P1;SDS_P2;PMS_P1;PMS_P2;Temp;Humidity;BMP_temperature;BMP_pressure;BME280_temperature;BME280_humidity;BME280_pressure;Samples;Min_cycle;Max_cycle;Signal;HPM_P1;HPM_P2
2022/09/30 00:01:36;;;;;;;8.13;5.68;;;;;;;13.61;69.03;100905.75;6216654;23;20008;-76
2022/09/30 00:04:02;;;;;;;8.68;5.20;;;;;;;13.68;68.93;100904.91;6182403;23;20094;-75
2022/09/30 00:06:28;;;;;;;10.35;6.32;;;;;;;13.32;70.62;100907.44;6219899;23;20012;-75
2022/09/30 00:08:54;;;;;;;7.63;5.60;;;;;;;13.68;69.34;100912.75;6187579;23;20518;-76
2022/09/30 00:11:27;;;;;;;9.05;5.65;;;;;;;13.77;69.31;100911.91;6214132;23;20066;-75
2022/09/30 00:13:54;;;;;;;8.45;5.47;;;;;;;13.79;69.01;100905.78;6217288;23;21072;-75
2022/09/30 00:16:21;;;;;;;8.20;5.30;;;;;;;13.73;69.14;100908.38;6207337;23;20534;-75
2022/09/30 00:18:47;;;;;;;6.75;5.00;;;;;;;13.74;68.91;100914.50;6215838;23;20004;-75
2022/09/30 00:21:15;;;;;;;7.10;4.90;;;;;;;13.73;68.92;100910.13;6209845;23;20023;-76
2022/09/30 00:23:42;;;;;;;7.97;4.95;;;;;;;13.71;69.06;100917.13;6219312;23;20079;-75
2022/09/30 00:26:11;;;;;;;8.57;5.57;;;;;;;13.51;69.93;100922.34;6209348;23;20023;-75
2022/09/30 00:28:37;;;;;;;7.22;4.90;;;;;;;13.73;69.14;100915.38;6215475;23;20011;-76
2022/09/30 00:31:06;;;;;;;8.27;4.93;;;;;;;13.81;68.65;100908.41;6214576;23;20043;-76
2022/09/30 00:33:32;;;;;;;7.68;4.80;;;;;;;13.77;68.37;100907.53;6212260;23;20012;-76
2022/09/30 00:35:57;;;;;;;7.30;4.65;;;;;;;13.66;68.40;100897.94;6217525;23;20004;-76
2022/09/30 00:38:23;;;;;;;6.30;4.38;;;;;;;13.64;68.03;100912.75;6212840;23;20014;-75
2022/09/30 00:40:48;;;;;;;7.78;4.97;;;;;;;13.40;68.87;100906.59;6217738;23;20000;-75
2022/09/30 00:43:40;;;;;;;8.55;4.90;;;;;;;13.35;68.93;100904.84;6214929;23;20012;-75
2022/09/30 00:46:15;;;;;;;6.55;4.72;;;;;;;13.34;68.91;100900.47;6204250;23;20019;-75
2022/09/30 00:48:41;;;;;;;8.13;5.30;;;;;;;13.37;68.31;100905.69;6214513;23;20008;-75
2022/09/30 00:51:06;;;;;;;7.45;5.03;;;;;;;13.32;68.29;100904.81;6212217;23;20078;-76
2022/09/30 00:53:40;;;;;;;8.25;5.10;;;;;;;13.23;68.43;100913.53;6215372;23;20047;-76
2022/09/30 00:56:16;;;;;;;8.48;4.93;;;;;;;13.15;68.99;100909.16;6208276;23;20406;-75
2022/09/30 00:58:50;;;;;;;9.13;4.40;;;;;;;13.14;69.08;100904.78;6217527;23;20012;-76
2022/09/30 01:01:17;;;;;;;7.40;4.88;;;;;;;13.18;68.36;100902.16;6215355;23;20121;-76
2022/09/30 01:03:53;;;;;;;7.03;4.75;;;;;;;13.09;68.49;100902.13;6210072;23;20336;-77
2022/09/30 01:06:21;;;;;;;7.88;5.18;;;;;;;13.05;68.30;100902.09;6214004;23;20125;-76
2022/09/30 01:08:47;;;;;;;8.45;4.93;;;;;;;12.96;68.38;100893.34;6184342;23;20008;-75
2022/09/30 01:11:13;;;;;;;7.00;4.82;;;;;;;12.92;67.94;100896.81;6216557;23;20061;-76
2022/09/30 01:13:41;;;;;;;8.65;4.95;;;;;;;12.91;68.32;100902.03;6217751;23;20315;-76
2022/09/30 01:16:21;;;;;;;9.02;4.90;;;;;;;12.84;68.51;100892.41;6209299;23;20031;-75
2022/09/30 01:18:52;;;;;;;7.05;4.97;;;;;;;12.80;68.67;100911.59;6217217;23;20033;-75
2022/09/30 01:21:42;;;;;;;8.30;5.25;;;;;;;12.63;69.88;100908.84;6214079;23;20016;-75
2022/09/30 01:24:37;;;;;;;8.50;5.20;;;;;;;12.70;69.21;100913.25;6210906;23;20004;-75
2022/09/30 01:27:24;;;;;;;6.40;4.53;;;;;;;12.72;68.54;100908.94;6211634;23;20483;-74
2022/09/30 01:30:05;;;;;;;7.88;4.80;;;;;;;12.63;68.76;100907.97;6218018;23;20047;-75
2022/09/30 01:32:52;;;;;;;6.90;4.40;;;;;;;12.58;68.39;100905.34;6208277;23;20012;-76
2022/09/30 01:35:32;;;;;;;8.13;4.78;;;;;;;12.53;68.55;100907.94;6212161;23;20032;-76
2022/09/30 01:38:08;;;;;;;9.00;4.82;;;;;;;12.49;68.77;100913.16;6217777;23;20035;-76
2022/09/30 01:40:43;;;;;;;7.50;4.50;;;;;;;12.49;68.43;100907.94;6217369;23;20435;-76
2022/09/30 01:43:30;;;;;;;8.80;5.22;;;;;;;12.06;70.93;100919.81;6217488;23;20075;-76
2022/09/30 01:46:01;;;;;;;8.82;5.22;;;;;;;12.28;70.10;100923.47;6212295;23;20379;-75
2022/09/30 01:48:40;;;;;;;6.50;4.30;;;;;;;12.35;69.15;100918.28;6218529;23;20436;-76
2022/09/30 01:51:49;;;;;;;14.15;4.60;;;;;;;12.39;69.01;100908.72;6213125;23;20009;-75
2022/09/30 01:54:52;;;;;;;6.72;4.28;;;;;;;12.36;68.86;100906.97;6193559;23;20491;-77
2022/09/30 01:57:27;;;;;;;5.72;4.10;;;;;;;12.32;68.58;100902.56;6213556;23;20012;-76
2022/09/30 02:00:06;;;;;;;7.25;4.13;;;;;;;12.31;68.58;100900.84;6216065;23;20012;-76
2022/09/30 02:02:35;;;;;;;6.40;4.32;;;;;;;12.23;68.76;100894.69;6209548;23;20047;-75
2022/09/30 02:05:08;;;;;;;7.68;4.90;;;;;;;12.19;69.05;100895.53;6215422;23;20403;-76
2022/09/30 02:07:43;;;;;;;7.55;4.50;;;;;;;12.20;69.23;100889.41;6218631;23;20016;-76
2022/09/30 02:10:14;;;;;;;8.18;4.60;;;;;;;12.22;69.05;100894.66;6181650;23;20019;-74
2022/09/30 02:12:47;;;;;;;7.45;4.85;;;;;;;12.29;68.84;100893.84;6214992;23;20042;-75
2022/09/30 02:15:25;;;;;;;6.20;4.47;;;;;;;12.26;68.79;100889.44;6186178;23;20008;-76
2022/09/30 02:18:02;;;;;;;8.95;4.95;;;;;;;12.26;69.09;100897.28;6218257;23;20016;-75
2022/09/30 02:20:32;;;;;;;9.82;5.28;;;;;;;12.20;69.14;100898.13;6215282;23;20004;-75
2022/09/30 02:23:27;;;;;;;9.27;4.88;;;;;;;12.14;69.31;100908.53;6219130;23;20454;-75
2022/09/30 02:26:15;;;;;;;7.07;4.38;;;;;;;12.15;68.68;100912.03;6215542;23;20004;-74
2022/09/30 02:28:48;;;;;;;7.07;4.28;;;;;;;12.12;69.05;100912.03;6212354;23;20039;-76
2022/09/30 02:31:15;;;;;;;7.55;4.50;;;;;;;12.09;68.80;100912.88;6214016;23;20358;-76
2022/09/30 02:33:47;;;;;;;7.70;4.43;;;;;;;12.10;68.74;100918.97;6207701;23;20015;-76
2022/09/30 02:36:27;;;;;;;6.95;4.40;;;;;;;12.12;68.91;100917.25;6183554;23;20336;-75
2022/09/30 02:39:06;;;;;;;7.25;4.72;;;;;;;12.14;68.65;100924.22;6212186;23;20152;-75
2022/09/30 02:41:42;;;;;;;10.02;5.25;;;;;;;12.14;68.94;100920.72;6185205;23;20287;-76
2022/09/30 02:44:08;;;;;;;8.63;5.47;;;;;;;11.98;69.81;100919.75;6212913;23;20376;-75
2022/09/30 02:46:52;;;;;;;8.38;5.65;;;;;;;11.99;70.16;100925.84;6218500;23;20012;-75
2022/09/30 02:49:37;;;;;;;7.67;5.10;;;;;;;12.03;69.11;100917.16;6220413;23;20038;-75
2022/09/30 02:52:15;;;;;;;8.77;5.70;;;;;;;11.98;69.66;100922.34;6210029;23;20012;-75
2022/09/30 02:54:59;;;;;;;8.15;5.20;;;;;;;12.00;69.13;100917.16;6220348;23;20479;-75
2022/09/30 02:57:36;;;;;;;8.13;4.90;;;;;;;12.01;69.18;100916.31;6212839;23;20008;-74
2022/09/30 03:00:04;;;;;;;7.75;4.78;;;;;;;12.00;69.17;100912.81;6213335;23;20312;-75
2022/09/30 03:02:29;;;;;;;7.32;4.50;;;;;;;12.02;69.06;100921.50;6213330;23;20087;-76
2022/09/30 03:04:55;;;;;;;8.23;5.20;;;;;;;12.03;69.22;100919.78;6220436;23;20531;-75
2022/09/30 03:07:20;;;;;;;9.57;6.10;;;;;;;12.08;69.43;100918.06;6219440;23;20082;-76
2022/09/30 03:09:45;;;;;;;11.15;6.88;;;;;;;12.10;69.83;100916.34;6215137;23;20012;-76
2022/09/30 03:12:40;;;;;;;9.40;6.45;;;;;;;12.15;69.57;100922.50;6213787;23;20008;-75
2022/09/30 03:15:24;;;;;;;9.57;6.77;;;;;;;12.16;69.77;100925.13;6212561;23;20008;-76
2022/09/30 03:18:06;;;;;;;11.55;6.72;;;;;;;12.22;69.49;100928.63;6220849;23;20523;-75
2022/09/30 03:20:31;;;;;;;11.15;6.63;;;;;;;12.25;69.55;100926.06;6217077;23;20606;-75
2022/09/30 03:23:29;;;;;;;10.18;6.60;;;;;;;12.26;69.54;100930.44;6214146;23;20008;-75
2022/09/30 03:26:11;;;;;;;13.82;7.20;;;;;;;12.26;69.40;100933.03;6219546;23;20004;-76
2022/09/30 03:29:21;;;;;;;13.80;7.63;;;;;;;12.24;69.39;100935.66;6219869;23;20667;-76
2022/09/30 03:31:52;;;;;;;12.85;7.65;;;;;;;12.18;69.28;100943.44;6169340;23;20087;-76
2022/09/30 03:34:32;;;;;;;13.27;7.38;;;;;;;12.16;69.52;100943.41;6212260;23;20008;-74
2022/09/30 03:37:13;;;;;;;12.82;7.45;;;;;;;12.14;69.37;100949.47;6217192;23;20075;-75
2022/09/30 03:39:58;;;;;;;11.77;8.18;;;;;;;12.08;69.67;100954.66;6216261;23;20412;-74
2022/09/30 03:42:46;;;;;;;14.07;8.32;;;;;;;11.92;70.44;100961.50;6214541;23;20016;-75
2022/09/30 03:45:19;;;;;;;11.40;7.18;;;;;;;12.03;69.81;100957.22;6213843;23;20391;-76
2022/09/30 03:47:49;;;;;;;12.60;7.55;;;;;;;12.01;69.43;100956.38;6187537;23;20004;-75
2022/09/30 03:50:20;;;;;;;11.85;6.50;;;;;;;11.96;69.37;100960.66;6210198;23;20490;-75
2022/09/30 03:52:47;;;;;;;11.45;6.38;;;;;;;11.95;69.03;100956.31;6216799;23;20046;-75
2022/09/30 03:55:14;;;;;;;15.73;8.30;;;;;;;11.93;69.53;100954.53;6217026;23;20005;-76
2022/09/30 03:57:40;;;;;;;14.55;7.93;;;;;;;11.91;69.38;100954.50;6210723;23;20019;-75
2022/09/30 04:00:06;;;;;;;12.02;7.90;;;;;;;11.84;69.87;100954.44;6214170;23;20055;-75
2022/09/30 04:02:32;;;;;;;14.30;8.90;;;;;;;11.78;69.69;100958.75;6213081;23;20019;-75
2022/09/30 04:04:58;;;;;;;11.60;7.63;;;;;;;11.80;69.42;100958.78;6220529;23;20301;-74
2022/09/30 04:07:24;;;;;;;11.98;7.40;;;;;;;11.77;69.32;100957.00;6190002;23;20347;-74
2022/09/30 04:09:49;;;;;;;12.18;7.63;;;;;;;11.76;69.33;100955.25;6215892;23;20070;-75
2022/09/30 04:12:15;;;;;;;12.30;8.23;;;;;;;11.72;69.83;100966.47;6215450;23;20016;-75
2022/09/30 04:14:40;;;;;;;12.38;8.02;;;;;;;11.74;69.26;100971.75;6213542;23;20012;-76
2022/09/30 04:17:05;;;;;;;10.90;7.18;;;;;;;11.74;69.24;100972.66;6216022;23;20012;-74
2022/09/30 04:19:34;;;;;;;13.00;8.23;;;;;;;11.81;69.11;100970.09;6221713;23;20428;-74
2022/09/30 04:22:00;;;;;;;12.85;7.80;;;;;;;11.79;69.69;100976.16;6181672;23;20260;-77
2022/09/30 04:24:25;;;;;;;13.25;7.88;;;;;;;11.83;69.77;100979.72;6216665;23;20004;-74
2022/09/30 04:26:51;;;;;;;13.93;8.18;;;;;;;11.86;70.25;100974.50;6211596;23;20004;-75
2022/09/30 04:29:16;;;;;;;13.27;7.90;;;;;;;11.91;69.86;100975.41;6216475;23;20043;-75
2022/09/30 04:31:42;;;;;;;16.58;9.73;;;;;;;11.91;70.53;100977.16;6215222;23;20008;-75
2022/09/30 04:34:10;;;;;;;18.75;11.13;;;;;;;11.95;71.15;100981.56;6187630;23;20008;-76
2022/09/30 04:36:35;;;;;;;19.98;11.30;;;;;;;12.05;71.59;100972.94;6217111;23;20004;-77
2022/09/30 04:39:01;;;;;;;20.00;10.43;;;;;;;12.17;70.80;100973.91;6216167;23;20012;-75
2022/09/30 04:41:26;;;;;;;20.63;11.50;;;;;;;12.20;71.00;100979.16;6218239;23;20004;-75
2022/09/30 04:43:52;;;;;;;20.13;11.95;;;;;;;12.24;71.41;100982.69;6191644;23;20016;-74
2022/09/30 04:46:20;;;;;;;21.25;12.43;;;;;;;12.34;71.36;100978.41;6207318;23;20015;-77
2022/09/30 04:48:46;;;;;;;23.00;12.82;;;;;;;12.40;71.36;100968.88;6216541;23;20074;-75
2022/09/30 04:51:19;;;;;;;23.48;11.70;;;;;;;12.56;70.72;100981.19;6210907;23;20054;-76
2022/09/30 04:53:46;;;;;;;20.80;12.40;;;;;;;12.56;70.50;100985.56;6217668;23;20087;-76
2022/09/30 04:56:11;;;;;;;22.17;12.40;;;;;;;12.52;70.84;100996.84;6210747;22;20407;-76
2022/09/30 04:58:36;;;;;;;22.35;11.98;;;;;;;12.47;70.74;100998.56;6221081;23;20010;-75
2022/09/30 05:01:07;;;;;;;21.00;11.35;;;;;;;12.47;70.30;101003.78;6214417;23;20123;-74
2022/09/30 05:03:34;;;;;;;17.63;9.85;;;;;;;12.45;69.67;101000.28;6214262;23;20018;-74
2022/09/30 05:06:00;;;;;;;18.77;11.40;;;;;;;12.40;69.88;101009.81;6217737;23;20381;-75
2022/09/30 05:08:26;;;;;;;19.00;11.00;;;;;;;12.38;70.16;101003.72;6214701;23;20068;-74
2022/09/30 05:10:56;;;;;;;20.95;11.70;;;;;;;12.36;70.41;101002.81;6215948;23;20254;-75
2022/09/30 05:13:24;;;;;;;19.73;10.80;;;;;;;12.36;69.97;101008.06;6216254;23;20107;-75
2022/09/30 05:15:49;;;;;;;22.67;12.43;;;;;;;12.35;70.13;101008.91;6208539;23;20609;-75
2022/09/30 05:18:15;;;;;;;21.90;11.77;;;;;;;12.40;70.36;100999.34;6216675;23;20342;-76
2022/09/30 05:20:41;;;;;;;22.80;13.25;;;;;;;12.29;71.79;101006.25;6210700;23;20478;-76
2022/09/30 05:23:06;;;;;;;26.83;14.15;;;;;;;12.39;71.34;101003.72;6215546;23;20030;-76
2022/09/30 05:25:33;;;;;;;24.63;14.00;;;;;;;12.54;71.20;100997.75;6215782;23;20008;-76
2022/09/30 05:28:00;;;;;;;27.08;13.82;;;;;;;12.54;71.24;100996.00;6215259;23;20077;-74
2022/09/30 05:30:25;;;;;;;25.80;13.70;;;;;;;12.56;71.57;100998.63;6217310;23;20012;-75
2022/09/30 05:32:50;;;;;;;24.23;13.48;;;;;;;12.66;71.30;101000.44;6214187;23;20050;-75
2022/09/30 05:35:16;;;;;;;24.40;13.80;;;;;;;12.66;71.63;101002.19;6219323;23;20011;-75
2022/09/30 05:37:42;;;;;;;25.85;14.18;;;;;;;12.67;71.26;101004.81;6218402;23;20004;-76
2022/09/30 05:40:08;;;;;;;25.00;13.52;;;;;;;12.74;71.54;101010.97;6207821;23;20078;-75
2022/09/30 05:42:35;;;;;;;22.75;13.18;;;;;;;12.78;71.17;101010.09;6214903;23;20514;-74
2022/09/30 05:45:02;;;;;;;23.33;13.68;;;;;;;12.76;71.27;101010.09;6212582;23;20012;-74
2022/09/30 05:47:28;;;;;;;26.55;14.65;;;;;;;12.73;71.76;101010.09;6218403;23;20051;-74
2022/09/30 05:49:53;;;;;;;23.98;13.98;;;;;;;12.82;71.49;101001.41;6219764;23;20043;-76
2022/09/30 05:52:21;;;;;;;25.13;14.88;;;;;;;12.87;71.51;101008.41;6206214;23;20379;-74
2022/09/30 05:54:46;;;;;;;26.25;15.15;;;;;;;12.89;71.68;101008.44;6217855;23;20015;-75
2022/09/30 05:57:12;;;;;;;26.23;15.02;;;;;;;12.87;71.60;101007.53;6211763;23;20008;-76
2022/09/30 05:59:37;;;;;;;25.67;14.98;;;;;;;13.05;71.35;101009.41;6219021;23;20007;-76
2022/09/30 06:02:04;;;;;;;24.33;14.52;;;;;;;13.16;71.21;101010.38;6209123;23;20378;-74
2022/09/30 06:04:29;;;;;;;24.13;14.40;;;;;;;13.18;71.52;101006.00;6212374;23;20012;-74
2022/09/30 06:06:55;;;;;;;23.83;14.68;;;;;;;13.32;71.33;101013.06;6216941;23;20421;-76
2022/09/30 06:09:21;;;;;;;23.75;14.15;;;;;;;13.40;71.32;101010.47;6211030;23;20418;-74
2022/09/30 06:11:46;;;;;;;24.15;13.88;;;;;;;13.41;70.92;101009.63;6217667;23;20241;-74
2022/09/30 06:14:12;;;;;;;22.73;13.77;;;;;;;13.52;71.23;101007.91;6208408;23;20030;-75
2022/09/30 06:16:37;;;;;;;22.60;13.55;;;;;;;13.69;71.33;101019.31;6216920;23;20490;-75
2022/09/30 06:19:03;;;;;;;23.15;13.02;;;;;;;13.85;70.71;101017.59;6217069;23;20036;-77
2022/09/30 06:21:28;;;;;;;21.95;13.63;;;;;;;14.01;70.72;101010.66;6213646;23;20110;-75
2022/09/30 06:23:53;;;;;;;19.30;12.95;;;;;;;14.22;70.17;101013.28;6221763;23;20019;-75
2022/09/30 06:26:19;;;;;;;25.40;14.15;;;;;;;14.49;70.49;101018.56;6209348;23;20357;-74
2022/09/30 06:28:44;;;;;;;17.77;11.57;;;;;;;15.17;68.69;101024.59;6222351;23;20001;-75
2022/09/30 06:31:10;;;;;;;14.30;10.23;;;;;;;15.76;65.19;101021.72;6218206;23;20333;-75
2022/09/30 06:33:36;;;;;;;13.80;9.52;;;;;;;16.41;62.92;101034.44;6214923;23;20015;-76
2022/09/30 06:36:03;;;;;;;14.77;9.25;;;;;;;17.13;59.88;101028.53;6188693;23;20015;-76
2022/09/30 06:38:30;;;;;;;15.85;10.02;;;;;;;17.60;56.90;101036.78;6213953;23;20039;-76
2022/09/30 06:40:58;;;;;;;15.95;9.82;;;;;;;17.93;56.42;101035.44;6216010;23;20004;-76
2022/09/30 06:43:23;;;;;;;15.73;9.75;;;;;;;18.46;54.88;101033.78;6218791;23;20082;-75
2022/09/30 06:45:50;;;;;;;14.43;9.40;;;;;;;18.67;53.45;101036.06;6214225;23;20343;-76
2022/09/30 06:48:16;;;;;;;13.50;9.40;;;;;;;18.53;54.06;101030.13;6214090;23;20035;-76
2022/09/30 06:50:41;;;;;;;17.95;9.52;;;;;;;18.42;53.63;101019.72;6184164;23;20054;-75
2022/09/30 06:53:07;;;;;;;14.20;9.90;;;;;;;17.97;54.23;101028.38;6216775;23;20038;-77
2022/09/30 06:55:37;;;;;;;14.18;9.70;;;;;;;17.64;55.75;101029.69;6221092;23;20262;-74
2022/09/30 06:58:05;;;;;;;15.18;10.57;;;;;;;17.17;57.23;101020.59;6210446;23;20019;-75
2022/09/30 07:00:30;;;;;;;16.02;10.45;;;;;;;16.75;58.77;101027.16;6215249;23;20202;-76
2022/09/30 07:02:55;;;;;;;15.13;10.75;;;;;;;16.49;59.25;101026.50;6211544;23;20086;-75
2022/09/30 07:05:22;;;;;;;15.05;10.63;;;;;;;16.33;60.34;101032.78;6216642;23;20107;-75
2022/09/30 07:07:48;;;;;;;16.33;10.95;;;;;;;16.24;60.51;101025.81;6219720;23;20007;-75
2022/09/30 07:10:13;;;;;;;16.63;11.13;;;;;;;16.10;61.33;101025.06;6211571;23;20016;-76
2022/09/30 07:12:39;;;;;;;19.02;11.57;;;;;;;16.10;61.65;101025.88;6216315;23;20178;-75
2022/09/30 07:15:05;;;;;;;18.17;11.02;;;;;;;16.02;61.92;101021.59;6214736;23;20016;-74
2022/09/30 07:17:30;;;;;;;17.63;10.75;;;;;;;16.10;61.86;101012.75;6217033;23;20000;-75
2022/09/30 07:19:57;;;;;;;18.35;11.45;;;;;;;16.13;62.07;101023.25;6219405;23;20004;-75
2022/09/30 07:22:29;;;;;;;15.68;11.18;;;;;;;16.16;62.03;101020.59;6205024;23;20027;-75
2022/09/30 07:24:56;;;;;;;18.08;11.40;;;;;;;16.38;61.88;101023.06;6216512;23;20008;-75
2022/09/30 07:27:22;;;;;;;15.82;10.80;;;;;;;16.43;61.33;101013.38;6211862;23;20011;-74
2022/09/30 07:29:48;;;;;;;16.05;9.80;;;;;;;16.63;61.74;101017.63;6193094;23;20012;-76
2022/09/30 07:32:14;;;;;;;18.33;11.20;;;;;;;16.56;61.78;101010.63;6207123;23;20018;-74
2022/09/30 07:34:41;;;;;;;15.25;10.57;;;;;;;16.70;61.86;101013.19;6216907;23;20335;-74
2022/09/30 07:37:08;;;;;;;14.60;10.60;;;;;;;16.70;61.72;101015.81;6215442;23;20455;-75
2022/09/30 07:39:34;;;;;;;16.13;10.57;;;;;;;16.72;62.16;101013.16;6216847;23;20004;-75
2022/09/30 07:42:01;;;;;;;12.75;9.85;;;;;;;16.72;62.49;101008.75;6216669;23;20019;-76
2022/09/30 07:44:27;;;;;;;17.00;10.35;;;;;;;16.81;62.21;101015.69;6210742;23;20434;-76
2022/09/30 07:46:53;;;;;;;14.18;10.18;;;;;;;17.01;61.70;101014.63;6215642;23;20012;-75
2022/09/30 07:49:24;;;;;;;14.10;9.88;;;;;;;17.04;61.71;101008.44;6218548;23;20079;-73
2022/09/30 07:51:50;;;;;;;13.68;9.52;;;;;;;17.28;61.09;101004.63;6211426;23;20015;-76
2022/09/30 07:54:19;;;;;;;13.95;10.20;;;;;;;17.28;61.25;101007.28;6214707;23;20613;-74
2022/09/30 07:56:45;;;;;;;12.02;8.85;;;;;;;17.48;60.87;101010.56;6214721;23;20015;-74
2022/09/30 07:59:11;;;;;;;13.57;9.57;;;;;;;17.50;60.20;101011.41;6190661;23;20464;-75
2022/09/30 08:01:37;;;;;;;12.57;9.27;;;;;;;17.59;60.93;101013.91;6189852;23;20353;-75
2022/09/30 08:04:05;;;;;;;16.05;9.23;;;;;;;17.60;60.18;101012.16;6209660;23;20020;-74
2022/09/30 08:06:31;;;;;;;11.93;8.77;;;;;;;17.79;60.08;101011.03;6217806;23;20404;-75
2022/09/30 08:08:58;;;;;;;12.63;8.63;;;;;;;17.89;59.98;101020.56;6215449;23;20209;-75
2022/09/30 08:11:24;;;;;;;12.75;8.10;;;;;;;17.90;59.99;101017.03;6215575;23;20098;-76
2022/09/30 08:13:51;;;;;;;13.60;7.90;;;;;;;17.75;60.12;101004.94;6216570;23;20081;-76
2022/09/30 08:16:17;;;;;;;10.35;7.88;;;;;;;17.86;59.67;101003.94;6179799;23;20012;-76
2022/09/30 08:18:42;;;;;;;11.70;8.45;;;;;;;17.69;59.88;101012.91;6215981;23;20385;-75
2022/09/30 08:21:08;;;;;;;11.70;7.50;;;;;;;17.74;60.82;101013.75;6211530;23;20074;-75
2022/09/30 08:23:33;;;;;;;10.32;7.10;;;;;;;17.87;60.41;101011.78;6217694;23;20028;-75
2022/09/30 08:26:07;;;;;;;9.00;6.60;;;;;;;17.80;60.27;101005.75;6219011;23;20004;-75
2022/09/30 08:28:33;;;;;;;10.85;6.38;;;;;;;17.67;60.13;101004.19;6191016;23;20176;-74
2022/09/30 08:31:13;;;;;;;9.68;6.18;;;;;;;17.50;61.17;101015.81;6214445;23;20004;-75
2022/09/30 08:33:39;;;;;;;8.75;6.10;;;;;;;17.63;60.78;101020.91;6211564;23;20023;-77
2022/09/30 08:36:10;;;;;;;10.00;6.22;;;;;;;17.48;61.18;101014.94;6203078;23;20510;-76
2022/09/30 08:38:35;;;;;;;8.52;5.53;;;;;;;17.80;60.44;101016.31;6211585;23;20019;-74
2022/09/30 08:41:07;;;;;;;8.18;5.70;;;;;;;17.85;60.26;101010.97;6185864;23;20946;-75
2022/09/30 08:43:35;;;;;;;8.15;5.15;;;;;;;18.00;60.09;101016.00;6214318;23;20065;-74
2022/09/30 08:46:30;;;;;;;10.60;5.20;;;;;;;18.08;59.47;101015.91;6210694;23;20019;-75
2022/09/30 08:49:17;;;;;;;8.27;4.57;;;;;;;18.00;59.32;101023.03;6218331;23;20373;-75
2022/09/30 08:51:46;;;;;;;7.32;4.18;;;;;;;17.98;59.53;101020.44;6208349;23;20042;-75
2022/09/30 08:54:15;;;;;;;7.15;4.13;;;;;;;17.63;59.67;101012.13;6182538;23;20011;-74
2022/09/30 08:56:43;;;;;;;5.72;3.53;;;;;;;17.93;58.55;101018.78;6211527;23;20057;-75
2022/09/30 08:59:25;;;;;;;6.07;2.97;;;;;;;18.32;58.15;101012.88;6217824;23;20011;-74
2022/09/30 09:01:54;;;;;;;7.00;3.70;;;;;;;18.48;57.75;101022.28;6213582;23;20018;-75
2022/09/30 09:04:20;;;;;;;5.32;3.60;;;;;;;18.40;57.82;101025.94;6207952;23;20106;-76
2022/09/30 09:07:00;;;;;;;6.93;3.53;;;;;;;18.39;58.65;101013.66;6217734;23;20083;-74
2022/09/30 09:09:56;;;;;;;7.30;3.60;;;;;;;18.66;56.81;101030.84;6204926;23;20352;-75
2022/09/30 09:12:30;;;;;;;4.50;3.08;;;;;;;18.60;57.29;101018.63;6209401;23;20011;-75
2022/09/30 09:15:11;;;;;;;4.70;2.90;;;;;;;18.86;56.59;101023.41;6203415;23;20024;-74
2022/09/30 09:17:45;;;;;;;5.65;2.90;;;;;;;18.92;56.05;101018.88;6205279;23;20427;-76
2022/09/30 09:20:17;;;;;;;4.53;2.60;;;;;;;19.01;55.95;101013.44;6198189;23;20012;-75
2022/09/30 09:22:44;;;;;;;4.10;2.40;;;;;;;19.11;55.00;101010.63;6209876;23;20743;-75
2022/09/30 09:25:20;;;;;;;3.65;2.33;;;;;;;19.22;54.42;101019.19;6214030;23;20236;-75
2022/09/30 09:27:54;;;;;;;3.53;2.20;;;;;;;19.19;53.75;101017.50;6210568;23;20268;-74
2022/09/30 09:30:22;;;;;;;4.18;2.20;;;;;;;19.29;53.51;101023.47;6208959;23;20341;-75
2022/09/30 09:33:14;;;;;;;4.20;2.00;;;;;;;19.30;53.58;101025.22;6210532;23;20098;-73
2022/09/30 09:35:58;;;;;;;3.22;1.90;;;;;;;19.62;52.94;101017.53;6213964;23;20008;-76
2022/09/30 09:38:44;;;;;;;1.77;1.40;;;;;;;19.75;52.70;101026.94;6205397;23;20724;-74
2022/09/30 09:41:21;;;;;;;5.45;1.63;;;;;;;19.79;51.66;101028.59;6212815;23;20016;-74
2022/09/30 09:43:55;;;;;;;4.03;1.48;;;;;;;19.76;50.65;101026.00;6216430;23;20066;-74
2022/09/30 09:46:26;;;;;;;;;;;;;;;19.73;50.74;101019.94;6179611;23;21088;-72
2022/09/30 09:49:19;;;;;;;3.25;1.20;;;;;;;19.87;51.41;101017.00;6215953;23;19911;-76
2022/09/30 09:52:12;;;;;;;2.42;1.20;;;;;;;19.90;50.14;101014.25;6206826;23;20487;-75
2022/09/30 09:54:46;;;;;;;2.35;1.33;;;;;;;19.88;50.70;101021.38;6215613;23;20007;-74
2022/09/30 09:57:14;;;;;;;2.17;1.10;;;;;;;19.57;51.98;101029.09;6212954;23;20015;-74
2022/09/30 10:02:59;;;;;;;1.83;0.80;;;;;;;18.98;51.98;101023.19;6210432;23;20062;-74
2022/09/30 10:05:25;;;;;;;2.33;0.82;;;;;;;19.25;52.57;101017.38;6216302;23;20019;-74
2022/09/30 10:08:08;;;;;;;1.23;0.70;;;;;;;19.31;51.04;101019.03;6214818;23;20385;-75
2022/09/30 10:10:44;;;;;;;1.45;0.80;;;;;;;19.38;50.64;101018.00;6211325;23;20045;-75
2022/09/30 10:13:29;;;;;;;2.67;0.80;;;;;;;19.49;50.81;101023.97;6187499;23;20008;-76
2022/09/30 10:15:57;;;;;;;2.67;0.85;;;;;;;19.05;51.21;101020.41;6209752;23;20340;-75
2022/09/30 10:18:29;;;;;;;2.92;0.73;;;;;;;19.70;50.33;101015.56;6208801;23;20015;-75
2022/09/30 10:21:01;;;;;;;1.98;0.80;;;;;;;19.60;51.12;101018.44;6208506;23;20016;-76
2022/09/30 10:23:30;;;;;;;3.65;1.00;;;;;;;19.64;49.91;101001.63;6211699;23;20007;-75
2022/09/30 10:25:59;;;;;;;3.08;1.15;;;;;;;19.46;50.50;101017.91;6216363;23;20004;-74
2022/09/30 10:28:28;;;;;;;2.85;1.35;;;;;;;19.64;50.53;101014.84;6204946;23;20447;-75
2022/09/30 10:30:58;;;;;;;2.85;1.48;;;;;;;19.53;51.51;101024.78;6212033;23;20015;-73
2022/09/30 10:33:40;;;;;;;3.55;1.40;;;;;;;19.78;51.06;101018.06;6206973;23;20012;-74
2022/09/30 10:36:14;;;;;;;4.05;1.40;;;;;;;20.07;50.35;101014.72;6212325;23;20012;-74
2022/09/30 10:38:58;;;;;;;2.28;1.40;;;;;;;20.44;49.51;101009.47;6211492;23;20094;-74
2022/09/30 10:41:26;;;;;;;2.83;1.70;;;;;;;20.60;48.90;101013.47;6210116;23;20419;-74
2022/09/30 10:43:55;;;;;;;5.05;1.35;;;;;;;20.43;48.47;101010.41;6215066;23;20051;-75
2022/09/30 10:46:24;;;;;;;2.90;1.58;;;;;;;20.38;48.69;101010.47;6205147;23;20267;-74
2022/09/30 10:48:53;;;;;;;5.40;1.60;;;;;;;19.95;48.94;101012.38;6212758;23;20043;-74
2022/09/30 10:51:32;;;;;;;3.58;1.52;;;;;;;19.94;49.42;101005.38;6181156;23;20008;-74
2022/09/30 10:53:58;;;;;;;3.58;1.55;;;;;;;20.01;49.75;101002.53;6213386;23;20004;-76
2022/09/30 10:56:37;;;;;;;4.28;1.60;;;;;;;19.95;48.74;100997.38;6205641;23;20349;-74
2022/09/30 10:59:05;;;;;;;3.80;1.95;;;;;;;19.98;48.40;101001.72;6214420;23;20007;-76
2022/09/30 11:01:46;;;;;;;2.83;1.90;;;;;;;20.26;48.21;100998.38;6207083;23;20087;-75
2022/09/30 11:04:38;;;;;;;3.55;2.30;;;;;;;20.68;48.09;101003.53;6209579;23;20015;-74
2022/09/30 11:07:26;;;;;;;5.57;2.80;;;;;;;20.53;48.98;101007.47;6190030;23;20019;-75
2022/09/30 11:10:01;;;;;;;5.97;3.80;;;;;;;20.77;48.12;100999.78;6185005;23;20018;-76
2022/09/30 11:12:52;;;;;;;6.55;3.50;;;;;;;20.85;47.35;101001.34;6217563;23;20007;-75
2022/09/30 11:15:23;;;;;;;5.22;3.30;;;;;;;20.50;48.75;100986.34;6214746;23;20012;-74
2022/09/30 11:17:56;;;;;;;6.13;3.30;;;;;;;20.17;49.53;100998.63;6217628;23;20197;-75
2022/09/30 11:20:28;;;;;;;4.63;3.17;;;;;;;20.13;49.21;100988.13;6208805;23;20008;-74
2022/09/30 11:23:15;;;;;;;4.35;2.85;;;;;;;20.43;48.97;100990.03;6190893;23;20246;-74
2022/09/30 11:25:48;;;;;;;4.97;2.60;;;;;;;20.72;47.99;100984.03;6201756;23;20021;-75
2022/09/30 11:28:33;;;;;;;5.45;2.70;;;;;;;20.82;47.86;100985.50;6180415;23;20009;-74
2022/09/30 11:31:45;;;;;;;5.25;3.30;;;;;;;20.44;48.11;100973.25;6180777;23;20012;-74
2022/09/30 11:34:43;;;;;;;5.03;2.90;;;;;;;20.81;47.47;100969.63;6155022;23;20013;-75
2022/09/30 11:37:17;;;;;;;4.60;3.17;;;;;;;21.06;47.96;100978.66;6190944;23;20015;-74
2022/09/30 11:40:03;;;;;;;7.38;3.55;;;;;;;20.93;47.07;100966.66;6179974;23;20062;-74
2022/09/30 11:42:44;;;;;;;6.03;3.03;;;;;;;21.24;46.90;100964.91;6187184;23;20039;-74
2022/09/30 11:45:24;;;;;;;5.60;3.08;;;;;;;21.21;48.46;100961.50;6180318;23;20008;-75